Szeged, Hungary

11:53 AM CEST on April 25, 2017 (GMT +0200)
Partiscum Csillagaszati Egyesulet | | Change Station

Elev 262 ft 46.24 °N, 20.11 °E | Updated 16 seconds ago

Clear
Clear
68.9 °F
Feels Like 68.9 °F
N
4.2
Wind Variable Wind from SSE
Gusts 4.2 mph

Today
High -- | Low -- °F
--% Chance of Precip.
Yesterday
High -- | Low -- °F
Precip. -- in
Pressure 30.01 in
Visibility -9999.0 miles
Clouds
Dew Point 48 °F
Humidity 48%
Rainfall Not available.
Snow Depth Not available.
5:35 AM 7:40 PM
Waning Crescent, 2% visible
METAR LRAR 250930Z 19013KT 160V220 CAVOK 17/05 Q1016
Pressure 30.01 in
Visibility -9999.0 miles
Clouds
Dew Point 48 °F
Humidity 48%
Rainfall Not available.
Snow Depth Not available.
5:35 AM 7:40 PM
Waning Crescent, 2% visible
METAR LRAR 250930Z 19013KT 160V220 CAVOK 17/05 Q1016

Get Severe Weather Alerts

Thanks for signing up!

Be on the lookout for a verification email in your inbox.

You'll start receiving the daily forecast at 8 AM.

×

10-Day Weather Forecast

×

Almanac

Astronomy

Apr. 25, 2017 Rise Set
Actual Time
Civil Twilight
Nautical Twilight
Astronomical Twilight
Moon
Length of Visible Light
Length of Day
Tomorrow will be .
, % of the Moon is Illuminated

Today's Extremes

Country Highs Country Lows

Community

WunderPhotos

WunderBlog® & News

Nearby

Air Quality

  Air Quality AQ Index Pollutant
Not available.

Snow Depth

Station Depth Elevation

Earthquake Activity

City Distance Mag. Time & Date
Minimum magnitude displayed is 2.5.

Coastal Water Temperatures

Place Temperature

Stations

Nearby Weather Stations

Station Location Temp. Windchill Dew Point Humidity Wind Precip. Elev Updated Type